Terminal Aerodrome Forecast
Issued by NWS Caribou, ME

Home | Current Version | Previous Version | Text Only | Print | Product List | Glossary On
Versions: 1 2 3 4 5 6 7 8 9 10 11 12 13 14 15 16 17 18 19 20 21
193
FTUS41 KCAR 290407 AAD
TAFCAR
TAF AMD
KCAR 290407Z 2904/2924 VRB02KT 4SM BR SCT002
      TEMPO 2904/2908 1 1/2SM BR VV001
     FM290800 VRB03KT 2SM BR BKN045
     FM291000 34005KT P6SM SCT025 BKN050=

USA.gov is the U.S. government's official web portal to all federal, state and local government web resources and services.